createdAt,value
2019-01-28T00:01:16.196Z,76.82
2019-01-28T00:03:44.061Z,76.82
2019-01-28T00:06:12.036Z,76.57
2019-01-28T00:08:40.002Z,76.66
2019-01-28T00:11:07.977Z,76.50
2019-01-28T00:13:35.593Z,76.39
2019-01-28T00:16:03.521Z,76.39
2019-01-28T00:18:31.476Z,75.95
2019-01-28T00:20:59.101Z,76.21
2019-01-28T00:23:26.996Z,76.15
2019-01-28T00:25:54.972Z,76.04
2019-01-28T00:28:22.844Z,76.47
2019-01-28T00:30:50.470Z,76.47
2019-01-28T00:33:18.368Z,76.49
2019-01-28T00:35:46.338Z,76.49
2019-01-28T00:38:13.957Z,76.32
2019-01-28T00:40:41.868Z,76.44
2019-01-28T00:43:09.835Z,76.34
2019-01-28T00:45:37.812Z,76.57
2019-01-28T00:48:05.438Z,76.24
2019-01-28T00:50:33.339Z,76.24
2019-01-28T00:53:01.305Z,76.61
2019-01-28T00:55:29.294Z,76.83
2019-01-28T00:57:57.246Z,76.73
2019-01-28T01:00:25.212Z,76.71
2019-01-28T01:02:53.188Z,76.89
2019-01-28T01:05:20.802Z,76.86
2019-01-28T01:07:48.718Z,76.86
2019-01-28T01:10:16.335Z,76.55
2019-01-28T01:12:44.246Z,77.08
2019-01-28T01:15:12.207Z,77.02
2019-01-28T01:17:39.836Z,77.07
2019-01-28T01:20:07.741Z,76.84
2019-01-28T01:22:35.721Z,77.27
2019-01-28T01:25:03.682Z,77.20
2019-01-28T01:27:31.651Z,77.07
2019-01-28T01:29:59.269Z,76.75
2019-01-28T01:32:27.177Z,76.89
2019-01-28T01:34:54.807Z,77.12
2019-01-28T01:37:22.717Z,77.12
2019-01-28T01:39:50.703Z,77.23
2019-01-28T01:42:18.667Z,77.17
2019-01-28T01:44:46.280Z,77.24
2019-01-28T01:47:14.177Z,77.62
2019-01-28T01:49:41.793Z,77.58
2019-01-28T01:52:09.416Z,77.44
2019-01-28T01:54:37.032Z,77.66
2019-01-28T01:57:04.946Z,77.91
2019-01-28T01:59:32.573Z,77.88
2019-01-28T02:02:00.498Z,77.73
2019-01-28T02:04:28.074Z,77.66
2019-01-28T02:06:55.996Z,77.81
2019-01-28T02:09:23.962Z,77.96
2019-01-28T02:11:51.591Z,78.11
2019-01-28T02:14:19.500Z,78.48
2019-01-28T02:16:47.459Z,78.48
2019-01-28T02:19:15.089Z,78.69
2019-01-28T02:21:42.725Z,78.72
2019-01-28T02:24:10.349Z,78.95
2019-01-28T02:26:38.314Z,78.99
2019-01-28T02:29:06.287Z,79.47
2019-01-28T02:31:33.901Z,79.25
2019-01-28T02:34:01.591Z,78.75
2019-01-28T02:36:29.222Z,78.75
2019-01-28T02:38:57.141Z,79.20
2019-01-28T02:41:24.772Z,79.71
2019-01-28T02:43:52.663Z,79.64
2019-01-28T02:46:20.292Z,79.63
2019-01-28T02:48:47.949Z,80.01
2019-01-28T02:51:15.863Z,80.50
2019-01-28T02:53:43.520Z,79.91
2019-01-28T02:56:11.134Z,78.96
2019-01-28T02:58:39.066Z,79.74
2019-01-28T03:01:06.670Z,80.71
2019-01-28T03:03:34.308Z,81.41
2019-01-28T03:06:02.249Z,81.63
2019-01-28T03:08:29.881Z,82.30
2019-01-28T03:10:57.504Z,82.71
2019-01-28T03:13:25.209Z,83.16
2019-01-28T03:15:52.847Z,83.89
2019-01-28T03:18:20.470Z,84.05
2019-01-28T03:20:48.435Z,84.67
2019-01-28T03:23:16.959Z,84.86
2019-01-28T03:25:44.882Z,84.39
2019-01-28T03:28:12.519Z,84.75
2019-01-28T03:30:40.411Z,84.27
2019-01-28T03:33:08.395Z,84.22
2019-01-28T03:35:36.344Z,84.32
2019-01-28T03:38:04.308Z,83.93
2019-01-28T03:40:32.287Z,83.59
2019-01-28T03:43:00.358Z,83.48
2019-01-28T03:45:27.981Z,83.84
2019-01-28T03:47:55.885Z,84.40
2019-01-28T03:50:23.870Z,84.38
2019-01-28T03:52:51.577Z,84.37
2019-01-28T03:55:19.483Z,84.22
2019-01-28T03:57:47.475Z,83.92
2019-01-28T04:00:15.097Z,83.84
2019-01-28T04:02:42.725Z,83.86
2019-01-28T04:05:10.462Z,83.80
2019-01-28T04:07:38.309Z,83.23
2019-01-28T04:10:06.298Z,82.83
2019-01-28T04:12:34.253Z,82.76
2019-01-28T04:15:01.887Z,82.69
2019-01-28T04:17:29.508Z,82.01
2019-01-28T04:19:57.124Z,81.92
2019-01-28T04:22:25.105Z,81.98
2019-01-28T04:24:52.733Z,81.57
2019-01-28T04:27:20.647Z,81.40
2019-01-28T04:29:48.282Z,81.07
2019-01-28T04:32:16.264Z,80.88
2019-01-28T04:34:44.231Z,81.19
2019-01-28T04:37:11.862Z,81.35
2019-01-28T04:39:39.765Z,80.71
2019-01-28T04:42:07.730Z,80.37
2019-01-28T04:44:35.375Z,80.37
2019-01-28T04:47:03.019Z,80.54
2019-01-28T04:49:30.928Z,80.37
2019-01-28T04:51:58.547Z,80.58
2019-01-28T04:54:26.174Z,80.57
2019-01-28T04:56:53.803Z,81.04
2019-01-28T04:59:21.439Z,81.45
2019-01-28T05:01:49.345Z,80.92
2019-01-28T05:04:17.302Z,80.94
2019-01-28T05:06:45.280Z,80.38
2019-01-28T05:09:13.262Z,80.43
2019-01-28T05:11:41.219Z,80.58
2019-01-28T05:14:08.850Z,79.78
2019-01-28T05:16:36.456Z,79.91
2019-01-28T05:19:04.419Z,79.79
2019-01-28T05:21:32.031Z,79.61
2019-01-28T05:23:59.945Z,80.16
2019-01-28T05:26:27.564Z,80.49
2019-01-28T05:28:55.212Z,81.07
2019-01-28T05:31:23.127Z,80.47
2019-01-28T05:33:51.157Z,80.72
2019-01-28T05:36:18.717Z,81.01
2019-01-28T05:38:46.628Z,81.90
2019-01-28T05:41:14.496Z,81.37
2019-01-28T05:43:42.112Z,82.06
2019-01-28T05:46:10.025Z,82.38
2019-01-28T05:48:37.655Z,82.55
2019-01-28T05:51:05.562Z,82.35
2019-01-28T05:53:33.529Z,82.45
2019-01-28T05:56:01.514Z,82.32
2019-01-28T05:58:29.481Z,82.36
2019-01-28T06:00:57.104Z,81.94
2019-01-28T06:03:25.119Z,81.68
2019-01-28T06:05:53.072Z,81.62
2019-01-28T06:08:20.720Z,81.44
2019-01-28T06:10:48.598Z,80.86
2019-01-28T06:13:16.583Z,80.32
2019-01-28T06:15:44.214Z,80.22
2019-01-28T06:18:12.101Z,80.10
2019-01-28T06:20:39.722Z,80.25
2019-01-28T06:23:07.646Z,80.55
2019-01-28T06:25:35.597Z,78.78
2019-01-28T06:28:03.579Z,78.95
2019-01-28T06:30:31.553Z,78.72
2019-01-28T06:32:59.501Z,78.74
2019-01-28T06:35:27.472Z,79.03
2019-01-28T06:37:55.341Z,78.25
2019-01-28T06:40:23.309Z,78.61
2019-01-28T06:42:51.282Z,78.70
2019-01-28T06:45:19.250Z,78.72
2019-01-28T06:47:47.321Z,79.73
2019-01-28T06:50:15.188Z,78.92
2019-01-28T06:52:42.803Z,77.57
2019-01-28T06:55:10.734Z,77.92
2019-01-28T06:57:38.686Z,78.17
2019-01-28T07:00:06.673Z,79.15
2019-01-28T07:02:34.289Z,79.33
2019-01-28T07:05:02.203Z,79.08
2019-01-28T07:07:30.181Z,79.12
2019-01-28T07:09:57.802Z,80.02
2019-01-28T07:12:25.490Z,79.70
2019-01-28T07:14:53.452Z,79.78
2019-01-28T07:17:21.442Z,79.60
2019-01-28T07:19:49.153Z,79.30
2019-01-28T07:22:17.052Z,78.30
2019-01-28T07:24:45.035Z,77.53
2019-01-28T07:27:12.987Z,77.44
2019-01-28T07:29:40.965Z,76.27
2019-01-28T07:32:08.575Z,75.67
2019-01-28T07:34:36.488Z,75.36
2019-01-28T07:37:05.288Z,75.46
2019-01-28T07:39:33.247Z,75.97
2019-01-28T07:42:01.222Z,75.75
2019-01-28T07:44:29.190Z,74.96
2019-01-28T07:46:57.174Z,73.51
2019-01-28T07:49:25.120Z,73.57
2019-01-28T07:51:52.741Z,73.34
2019-01-28T07:54:20.762Z,72.20
2019-01-28T07:56:48.371Z,71.67
2019-01-28T07:59:16.011Z,71.20
2019-01-28T08:01:43.954Z,69.22
2019-01-28T08:04:11.926Z,69.89
2019-01-28T08:06:39.892Z,69.80
2019-01-28T08:09:07.860Z,70.46
2019-01-28T08:11:35.499Z,69.17
2019-01-28T08:14:03.113Z,69.19
2019-01-28T08:16:31.067Z,69.09
2019-01-28T08:18:59.046Z,69.59
2019-01-28T08:21:26.989Z,69.04
2019-01-28T08:23:54.867Z,69.05
2019-01-28T08:26:22.829Z,68.59
2019-01-28T08:28:50.693Z,68.70
2019-01-28T08:31:18.665Z,68.01
2019-01-28T08:33:46.288Z,68.65
2019-01-28T08:36:13.913Z,69.10
2019-01-28T08:38:41.857Z,68.77
2019-01-28T08:41:09.825Z,68.69
2019-01-28T08:43:38.120Z,68.63
2019-01-28T08:46:05.815Z,67.99
2019-01-28T08:48:33.360Z,67.12
2019-01-28T08:51:00.977Z,67.17
2019-01-28T08:53:28.670Z,67.04
2019-01-28T08:55:56.297Z,66.82
2019-01-28T08:58:24.182Z,67.10
2019-01-28T09:00:52.153Z,67.37
2019-01-28T09:03:20.015Z,67.81
2019-01-28T09:05:47.994Z,66.93
2019-01-28T09:08:15.616Z,66.50
2019-01-28T09:10:43.523Z,66.46
2019-01-28T09:13:11.134Z,65.90
2019-01-28T09:15:39.046Z,66.32
2019-01-28T09:18:07.012Z,66.41
2019-01-28T09:20:34.693Z,65.74
2019-01-28T09:23:02.305Z,65.34
2019-01-28T09:25:30.214Z,64.57
2019-01-28T09:27:58.178Z,63.74
2019-01-28T09:30:26.143Z,62.61
2019-01-28T09:32:54.116Z,62.73
2019-01-28T09:35:21.730Z,62.72
2019-01-28T09:37:49.947Z,62.47
2019-01-28T09:40:17.583Z,62.12
2019-01-28T09:42:45.197Z,61.74
2019-01-28T09:45:13.143Z,61.23
2019-01-28T09:47:41.012Z,60.95
2019-01-28T09:50:08.980Z,62.04
2019-01-28T09:52:36.848Z,62.04
2019-01-28T09:55:04.555Z,60.62
2019-01-28T09:57:32.498Z,61.83
2019-01-28T10:00:00.450Z,61.02
2019-01-28T10:02:28.328Z,60.51
2019-01-28T10:04:55.928Z,60.51
2019-01-28T10:07:23.840Z,60.54
2019-01-28T10:09:51.716Z,59.27
2019-01-28T10:12:19.686Z,59.11
2019-01-28T10:14:47.655Z,58.11
2019-01-28T10:17:15.264Z,57.68
2019-01-28T10:19:43.189Z,57.65
2019-01-28T10:22:10.824Z,57.34
2019-01-28T10:24:38.714Z,57.21
2019-01-28T10:27:06.323Z,56.27
2019-01-28T10:29:33.937Z,55.87
2019-01-28T10:32:01.533Z,56.32
2019-01-28T10:34:29.463Z,55.55
2019-01-28T10:36:57.355Z,55.55
2019-01-28T10:39:25.301Z,55.89
2019-01-28T10:41:52.923Z,56.55
2019-01-28T10:44:20.827Z,56.72
2019-01-28T10:46:48.802Z,57.23
2019-01-28T10:49:16.669Z,57.43
2019-01-28T10:51:44.642Z,56.11
2019-01-28T10:54:12.245Z,56.69
2019-01-28T10:56:39.864Z,57.79
2019-01-28T10:59:07.478Z,56.29
2019-01-28T11:01:35.390Z,55.89
2019-01-28T11:04:03.262Z,56.47
2019-01-28T11:06:31.229Z,56.47
2019-01-28T11:08:58.841Z,56.48
2019-01-28T11:11:26.773Z,57.67
2019-01-28T11:13:54.826Z,57.67
2019-01-28T11:16:22.425Z,57.83
2019-01-28T11:18:57.377Z,57.39
2019-01-28T11:21:19.684Z,56.84
2019-01-28T11:23:47.289Z,57.99
2019-01-28T11:26:15.189Z,56.79
2019-01-28T11:28:44.593Z,56.90
2019-01-28T11:31:12.524Z,57.08
2019-01-28T11:33:40.447Z,57.13
2019-01-28T11:36:08.068Z,56.95
2019-01-28T11:38:35.645Z,56.95
2019-01-28T11:41:03.272Z,56.81
2019-01-28T11:43:30.977Z,56.83
2019-01-28T11:45:58.745Z,56.70
2019-01-28T11:48:26.755Z,56.22
2019-01-28T11:50:56.058Z,56.04
2019-01-28T11:53:23.686Z,55.96
2019-01-28T11:55:51.643Z,55.25
2019-01-28T11:58:19.612Z,56.03
2019-01-28T12:00:54.473Z,54.89
2019-01-28T12:03:22.091Z,56.15
2019-01-28T12:05:49.992Z,55.49
2019-01-28T12:08:17.937Z,55.61
2019-01-28T12:10:45.549Z,56.13
2019-01-28T12:13:13.160Z,56.13
2019-01-28T12:15:40.758Z,54.42
2019-01-28T12:18:08.693Z,55.14
2019-01-28T12:20:36.557Z,53.62
2019-01-28T12:23:04.432Z,54.02
2019-01-28T12:25:32.296Z,53.89
2019-01-28T12:28:00.168Z,54.36
2019-01-28T12:30:28.037Z,54.94
2019-01-28T12:32:55.716Z,53.45
2019-01-28T12:35:23.666Z,53.45
2019-01-28T12:37:51.291Z,54.04
2019-01-28T12:40:18.901Z,54.66
2019-01-28T12:42:46.872Z,52.92
2019-01-28T12:45:14.482Z,53.62
2019-01-28T12:47:42.118Z,54.75
2019-01-28T12:50:10.058Z,54.75
2019-01-28T12:52:37.676Z,53.94
2019-01-28T12:55:05.289Z,54.34
2019-01-28T12:57:33.241Z,53.80
2019-01-28T13:00:01.108Z,53.95
2019-01-28T13:02:28.736Z,55.17
2019-01-28T13:04:56.632Z,53.96
2019-01-28T13:07:24.606Z,55.33
2019-01-28T13:09:52.222Z,54.13
2019-01-28T13:12:20.138Z,53.24
2019-01-28T13:14:48.110Z,53.26
2019-01-28T13:17:15.862Z,53.02
2019-01-28T13:19:43.740Z,51.89
2019-01-28T13:22:11.703Z,52.20
2019-01-28T13:24:39.576Z,53.70
2019-01-28T13:27:07.546Z,53.69
2019-01-28T13:29:35.529Z,53.68
2019-01-28T13:32:03.490Z,54.51
2019-01-28T13:34:31.105Z,53.37
2019-01-28T13:36:59.101Z,53.61
2019-01-28T13:39:26.742Z,54.01
2019-01-28T13:41:54.374Z,53.59
2019-01-28T13:44:22.319Z,53.71
2019-01-28T13:46:49.919Z,53.50
2019-01-28T13:49:17.837Z,53.90
2019-01-28T13:51:45.491Z,54.48
2019-01-28T13:54:13.378Z,54.52
2019-01-28T13:56:40.985Z,54.71
2019-01-28T13:59:15.903Z,54.82
2019-01-28T14:01:38.301Z,55.65
2019-01-28T14:04:06.265Z,55.25
2019-01-28T14:06:33.888Z,55.37
2019-01-28T14:09:01.807Z,55.37
2019-01-28T14:11:29.492Z,55.17
2019-01-28T14:13:57.413Z,54.57
2019-01-28T14:16:25.015Z,55.29
2019-01-28T14:18:52.965Z,55.41
2019-01-28T14:21:20.572Z,55.41
2019-01-28T14:23:48.493Z,55.54
2019-01-28T14:26:16.459Z,55.49
2019-01-28T14:28:44.438Z,56.05
2019-01-28T14:31:12.040Z,55.36
2019-01-28T14:33:39.962Z,55.81
2019-01-28T14:36:07.844Z,56.09
2019-01-28T14:38:35.815Z,56.68
2019-01-28T14:41:03.766Z,56.20
2019-01-28T14:43:31.738Z,57.44
2019-01-28T14:45:59.608Z,56.69
2019-01-28T14:48:27.574Z,57.59
2019-01-28T14:50:55.541Z,58.02
2019-01-28T14:53:23.513Z,58.00
2019-01-28T14:55:51.381Z,58.37
2019-01-28T14:58:19.355Z,58.34
2019-01-28T15:00:46.967Z,58.39
2019-01-28T15:03:14.664Z,58.21
2019-01-28T15:05:42.551Z,58.21
2019-01-28T15:08:10.508Z,58.70
2019-01-28T15:10:38.115Z,58.76
2019-01-28T15:13:06.038Z,58.49
2019-01-28T15:15:33.920Z,60.34
2019-01-28T15:18:01.884Z,59.17
2019-01-28T15:20:29.494Z,59.90
2019-01-28T15:22:57.114Z,59.90
2019-01-28T15:25:25.092Z,59.62
2019-01-28T15:27:54.561Z,60.01
2019-01-28T15:30:22.144Z,60.01
2019-01-28T15:32:49.819Z,60.56
2019-01-28T15:35:17.443Z,60.84
2019-01-28T15:37:45.336Z,60.17
2019-01-28T15:40:12.940Z,61.12
2019-01-28T15:42:40.854Z,61.12
2019-01-28T15:45:11.305Z,61.34
2019-01-28T15:47:38.342Z,61.43
2019-01-28T15:50:10.472Z,61.34
2019-01-28T15:52:35.305Z,61.94
2019-01-28T15:55:02.922Z,61.86
2019-01-28T15:57:30.827Z,61.85
2019-01-28T15:59:58.704Z,62.42
2019-01-28T16:02:26.666Z,62.42
2019-01-28T16:04:54.279Z,62.69
2019-01-28T16:07:22.191Z,62.67
2019-01-28T16:09:50.080Z,62.76
2019-01-28T16:12:17.676Z,61.87
2019-01-28T16:14:45.595Z,59.78
2019-01-28T16:17:13.456Z,59.66
2019-01-28T16:19:41.442Z,59.67
2019-01-28T16:22:09.045Z,58.61
2019-01-28T16:24:36.954Z,59.34
2019-01-28T16:27:04.553Z,58.96
2019-01-28T16:29:32.482Z,59.00
2019-01-28T16:32:00.078Z,59.25
2019-01-28T16:34:28.018Z,59.50
2019-01-28T16:36:55.885Z,58.97
2019-01-28T16:39:23.855Z,59.60
2019-01-28T16:41:51.721Z,59.94
2019-01-28T16:44:19.701Z,58.72
2019-01-28T16:46:47.304Z,59.13
2019-01-28T16:49:15.217Z,60.20
2019-01-28T16:51:42.821Z,59.51
2019-01-28T16:54:10.435Z,59.98
2019-01-28T16:56:38.310Z,59.88
2019-01-28T16:59:06.274Z,59.95
2019-01-28T17:01:34.142Z,60.14
2019-01-28T17:04:02.013Z,60.30
2019-01-28T17:06:29.875Z,60.48
2019-01-28T17:08:57.743Z,59.97
2019-01-28T17:11:25.634Z,60.50
2019-01-28T17:13:53.587Z,59.74
2019-01-28T17:16:21.556Z,60.00
2019-01-28T17:18:49.158Z,60.50
2019-01-28T17:21:17.088Z,59.81
2019-01-28T17:23:45.058Z,60.75
2019-01-28T17:26:12.660Z,60.34
2019-01-28T17:28:40.286Z,61.74
2019-01-28T17:31:08.351Z,61.11
2019-01-28T17:33:35.956Z,61.11
2019-01-28T17:36:03.882Z,61.35
2019-01-28T17:38:31.737Z,61.42
2019-01-28T17:40:59.713Z,61.68
2019-01-28T17:43:27.680Z,61.59
2019-01-28T17:45:55.652Z,62.49
2019-01-28T17:48:23.251Z,62.49
2019-01-28T17:50:50.863Z,61.74
2019-01-28T17:53:18.477Z,62.38
2019-01-28T17:55:46.090Z,62.25
2019-01-28T17:58:13.960Z,62.80
2019-01-28T18:00:46.045Z,62.80
2019-01-28T18:03:14.000Z,62.12
2019-01-28T18:05:41.968Z,62.96
2019-01-28T18:08:09.573Z,61.96
2019-01-28T18:10:37.181Z,62.41
2019-01-28T18:13:05.056Z,63.48
2019-01-28T18:15:32.672Z,63.42
2019-01-28T18:18:00.287Z,63.29
2019-01-28T18:20:27.919Z,63.39
2019-01-28T18:22:55.511Z,64.12
2019-01-28T18:25:23.477Z,63.93
2019-01-28T18:27:51.342Z,63.23
2019-01-28T18:30:21.109Z,63.66
2019-01-28T18:32:49.027Z,64.27
2019-01-28T18:35:16.890Z,64.48
2019-01-28T18:37:44.772Z,63.34
2019-01-28T18:40:12.728Z,64.92
2019-01-28T18:42:40.694Z,66.21
2019-01-28T18:45:08.561Z,67.08
2019-01-28T18:47:36.444Z,68.68
2019-01-28T18:50:04.397Z,69.23
2019-01-28T18:52:32.372Z,71.08
2019-01-28T18:55:00.341Z,73.12
2019-01-28T18:57:27.956Z,73.75
2019-01-28T18:59:55.583Z,73.85
2019-01-28T19:02:23.546Z,74.45
2019-01-28T19:04:51.242Z,76.08
2019-01-28T19:07:47.222Z,76.95
2019-01-28T19:10:32.906Z,77.75
2019-01-28T19:13:07.867Z,77.61
2019-01-28T19:15:47.315Z,77.43
2019-01-28T19:18:22.847Z,78.13
2019-01-28T19:21:08.107Z,77.81
2019-01-28T19:23:33.216Z,78.56
2019-01-28T19:26:00.856Z,78.51
2019-01-28T19:28:28.449Z,78.63
2019-01-28T19:30:56.391Z,77.21
2019-01-28T19:33:24.260Z,78.62
2019-01-28T19:35:52.143Z,78.02
2019-01-28T19:38:20.098Z,77.44
2019-01-28T19:40:47.732Z,78.59
2019-01-28T19:43:15.344Z,77.90
2019-01-28T19:45:43.292Z,78.33
2019-01-28T19:48:10.919Z,78.20
2019-01-28T19:50:38.815Z,78.66
2019-01-28T19:53:06.427Z,79.53
2019-01-28T19:55:34.114Z,78.41
2019-01-28T19:58:01.717Z,78.20
2019-01-28T20:00:29.403Z,77.78
2019-01-28T20:02:58.266Z,77.61
2019-01-28T20:05:26.343Z,78.75
2019-01-28T20:07:54.301Z,78.41
2019-01-28T20:10:22.268Z,78.76
2019-01-28T20:12:50.139Z,79.50
2019-01-28T20:15:17.755Z,79.44
2019-01-28T20:17:45.366Z,79.54
2019-01-28T20:20:13.329Z,78.88
2019-01-28T20:22:41.303Z,79.01
2019-01-28T20:25:09.284Z,79.47
2019-01-28T20:27:37.341Z,79.53
2019-01-28T20:30:04.965Z,79.65
2019-01-28T20:32:32.867Z,79.10
2019-01-28T20:35:00.735Z,79.52
2019-01-28T20:37:28.600Z,79.39
2019-01-28T20:39:56.469Z,78.95
2019-01-28T20:42:24.096Z,79.36
2019-01-28T20:44:51.709Z,79.41
2019-01-28T20:47:19.676Z,79.55
2019-01-28T20:49:47.303Z,79.07
2019-01-28T20:52:15.191Z,79.15
2019-01-28T20:54:42.816Z,79.35
2019-01-28T20:57:10.440Z,79.17
2019-01-28T20:59:38.056Z,78.82
2019-01-28T21:02:05.961Z,79.55
2019-01-28T21:04:33.554Z,79.52
2019-01-28T21:07:01.484Z,79.67
2019-01-28T21:09:29.086Z,80.51
2019-01-28T21:11:56.710Z,80.35
2019-01-28T21:14:24.692Z,80.79
2019-01-28T21:16:52.594Z,80.80
2019-01-28T21:19:20.132Z,80.81
2019-01-28T21:21:48.082Z,80.93
2019-01-28T21:24:16.032Z,80.99
2019-01-28T21:26:45.913Z,80.96
2019-01-28T21:29:13.295Z,81.05
2019-01-28T21:31:40.924Z,80.95
2019-01-28T21:34:08.831Z,81.18
2019-01-28T21:36:47.964Z,81.45
2019-01-28T21:39:16.554Z,81.56
2019-01-28T21:41:44.174Z,81.30
2019-01-28T21:44:11.794Z,81.17
2019-01-28T21:46:39.420Z,81.50
2019-01-28T21:49:07.302Z,81.61
2019-01-28T21:51:34.924Z,81.86
2019-01-28T21:54:02.540Z,81.87
2019-01-28T21:56:30.506Z,82.13
2019-01-28T21:58:58.460Z,81.94
2019-01-28T22:01:26.430Z,81.64
2019-01-28T22:03:54.322Z,81.79
2019-01-28T22:06:22.013Z,81.60
2019-01-28T22:08:49.625Z,81.66
2019-01-28T22:11:17.591Z,82.04
2019-01-28T22:13:45.459Z,82.33
2019-01-28T22:16:13.964Z,82.35
2019-01-28T22:18:41.911Z,82.61
2019-01-28T22:21:18.346Z,82.67
2019-01-28T22:23:46.261Z,82.57
2019-01-28T22:26:13.883Z,82.58
2019-01-28T22:28:41.781Z,82.69
2019-01-28T22:31:09.469Z,82.35
2019-01-28T22:33:37.408Z,82.30
2019-01-28T22:36:05.395Z,82.59
2019-01-28T22:38:32.996Z,82.77
2019-01-28T22:41:00.924Z,83.16
2019-01-28T22:43:28.537Z,83.40
2019-01-28T22:45:56.437Z,83.45
2019-01-28T22:48:24.410Z,83.53
2019-01-28T22:50:52.031Z,84.03
2019-01-28T22:53:19.653Z,83.81
2019-01-28T22:55:47.599Z,84.11
2019-01-28T22:58:15.219Z,83.96
2019-01-28T23:00:53.063Z,84.25
2019-01-28T23:03:20.689Z,84.14
2019-01-28T23:05:48.301Z,84.27
2019-01-28T23:08:16.276Z,84.12
2019-01-28T23:10:44.241Z,84.29
2019-01-28T23:13:11.856Z,84.44
2019-01-28T23:15:39.472Z,84.64
2019-01-28T23:18:07.409Z,84.80
2019-01-28T23:20:35.025Z,84.94
2019-01-28T23:23:02.945Z,85.00
2019-01-28T23:25:30.917Z,85.11
2019-01-28T23:27:58.549Z,84.80
2019-01-28T23:30:26.443Z,84.85
2019-01-28T23:32:54.068Z,85.05
2019-01-28T23:35:21.993Z,85.22
2019-01-28T23:37:49.947Z,84.84
2019-01-28T23:40:17.914Z,85.20
2019-01-28T23:42:45.898Z,85.55
2019-01-28T23:45:13.579Z,85.87
2019-01-28T23:47:41.515Z,85.38
2019-01-28T23:50:09.384Z,85.65
2019-01-28T23:52:37.003Z,85.78
2019-01-28T23:55:04.930Z,86.54
2019-01-28T23:57:32.558Z,87.03
